createdAt,value
2022-09-06T00:01:11.929Z,6.75
2022-09-06T00:03:40.591Z,5.83
2022-09-06T00:06:12.662Z,6.63
2022-09-06T00:08:41.579Z,6.36
2022-09-06T00:11:10.159Z,6.48
2022-09-06T00:13:38.752Z,6.52
2022-09-06T00:16:11.281Z,6.38
2022-09-06T00:18:40.388Z,5.66
2022-09-06T00:21:23.441Z,6.01
2022-09-06T00:23:53.095Z,6.24
2022-09-06T00:26:22.765Z,6.24
2022-09-06T00:28:51.760Z,6.11
2022-09-06T00:31:23.715Z,6.11
2022-09-06T00:33:53.066Z,5.86
2022-09-06T00:36:22.354Z,5.72
2022-09-06T00:38:50.898Z,5.93
2022-09-06T00:41:20.093Z,5.85
2022-09-06T00:43:48.423Z,5.79
2022-09-06T00:46:22.482Z,5.50
2022-09-06T00:48:55.736Z,5.75
2022-09-06T00:51:28.706Z,5.68
2022-09-06T00:53:57.451Z,5.65
2022-09-06T00:56:26.631Z,5.41
2022-09-06T00:58:55.651Z,5.51
2022-09-06T01:01:23.984Z,5.49
2022-09-06T01:03:53.063Z,5.04
2022-09-06T01:06:26.647Z,5.68
2022-09-06T01:09:12.707Z,5.36
2022-09-06T01:12:22.583Z,5.75
2022-09-06T01:15:12.885Z,5.55
2022-09-06T01:18:22.683Z,5.31
2022-09-06T01:21:32.234Z,5.36
2022-09-06T01:24:41.302Z,5.26
2022-09-06T01:27:33.855Z,5.29
2022-09-06T01:30:07.025Z,5.25
2022-09-06T01:32:56.031Z,5.08
2022-09-06T01:35:49.479Z,4.76
2022-09-06T01:38:17.903Z,4.99
2022-09-06T01:40:46.070Z,4.97
2022-09-06T01:43:35.402Z,4.96
2022-09-06T01:46:39.622Z,4.97
2022-09-06T01:49:39.042Z,5.01
2022-09-06T01:52:15.841Z,5.07
2022-09-06T01:54:47.250Z,5.07
2022-09-06T01:57:23.997Z,5.15
2022-09-06T02:00:12.314Z,5.12
2022-09-06T02:03:28.282Z,4.93
2022-09-06T02:06:24.701Z,5.05
2022-09-06T02:09:25.114Z,5.07
2022-09-06T02:12:01.591Z,4.83
2022-09-06T02:14:41.012Z,5.04
2022-09-06T02:17:16.108Z,5.27
2022-09-06T02:19:55.753Z,5.41
2022-09-06T02:22:31.361Z,5.46
2022-09-06T02:25:01.379Z,5.19
2022-09-06T02:27:31.128Z,5.21
2022-09-06T02:29:59.632Z,5.54
2022-09-06T02:32:30.700Z,5.62
2022-09-06T02:34:59.135Z,5.41
2022-09-06T02:37:27.806Z,5.67
2022-09-06T02:39:56.503Z,5.72
2022-09-06T02:42:25.343Z,5.69
2022-09-06T02:44:53.690Z,5.59
2022-09-06T02:47:21.981Z,5.47
2022-09-06T02:49:50.746Z,5.44
2022-09-06T02:52:19.274Z,5.37
2022-09-06T02:54:47.462Z,4.98
2022-09-06T02:57:15.563Z,5.21
2022-09-06T02:59:44.474Z,5.11
2022-09-06T03:02:13.029Z,5.16
2022-09-06T03:04:41.163Z,5.05
2022-09-06T03:07:09.361Z,4.82
2022-09-06T03:09:37.425Z,5.08
2022-09-06T03:12:05.893Z,5.03
2022-09-06T03:14:39.434Z,4.99
2022-09-06T03:17:10.010Z,5.20
2022-09-06T03:19:38.188Z,5.20
2022-09-06T03:22:06.273Z,5.19
2022-09-06T03:24:36.012Z,5.17
2022-09-06T03:27:04.253Z,5.16
2022-09-06T03:29:32.578Z,5.15
2022-09-06T03:32:00.955Z,4.81
2022-09-06T03:34:28.993Z,5.06
2022-09-06T03:36:57.132Z,5.08
2022-09-06T03:39:25.506Z,5.05
2022-09-06T03:41:53.798Z,4.82
2022-09-06T03:44:22.330Z,4.85
2022-09-06T03:46:51.872Z,4.99
2022-09-06T03:49:20.344Z,5.05
2022-09-06T03:51:48.644Z,4.95
2022-09-06T03:54:17.110Z,4.65
2022-09-06T03:56:45.296Z,4.82
2022-09-06T03:59:13.416Z,4.87
2022-09-06T04:01:41.902Z,4.87
2022-09-06T04:04:10.222Z,4.90
2022-09-06T04:06:38.445Z,5.05
2022-09-06T04:09:07.004Z,4.70
2022-09-06T04:11:35.115Z,4.65
2022-09-06T04:14:03.460Z,4.96
2022-09-06T04:16:32.122Z,4.97
2022-09-06T04:19:02.022Z,5.03
2022-09-06T04:21:30.439Z,5.21
2022-09-06T04:23:58.923Z,5.11
2022-09-06T04:26:27.339Z,5.43
2022-09-06T04:28:56.411Z,5.59
2022-09-06T04:31:24.970Z,5.72
2022-09-06T04:33:53.514Z,5.55
2022-09-06T04:36:21.812Z,5.73
2022-09-06T04:38:50.014Z,5.70
2022-09-06T04:41:19.018Z,5.66
2022-09-06T04:43:47.457Z,5.68
2022-09-06T04:46:24.276Z,5.72
2022-09-06T04:48:56.997Z,5.80
2022-09-06T04:51:26.076Z,5.97
2022-09-06T04:53:54.497Z,5.88
2022-09-06T04:56:25.671Z,6.28
2022-09-06T04:58:55.743Z,6.46
2022-09-06T05:01:26.524Z,6.46
2022-09-06T05:03:56.869Z,7.14
2022-09-06T05:06:26.559Z,7.58
2022-09-06T05:08:54.593Z,7.79
2022-09-06T05:11:23.129Z,8.54
2022-09-06T05:13:51.689Z,8.81
2022-09-06T05:16:19.803Z,9.04
2022-09-06T05:18:47.990Z,9.59
2022-09-06T05:21:16.596Z,9.93
2022-09-06T05:23:44.993Z,10.18
2022-09-06T05:26:13.293Z,10.35
2022-09-06T05:28:41.583Z,10.58
2022-09-06T05:31:13.141Z,10.56
2022-09-06T05:33:41.466Z,10.77
2022-09-06T05:36:10.544Z,10.69
2022-09-06T05:38:38.657Z,10.91
2022-09-06T05:41:06.866Z,10.90
2022-09-06T05:43:35.219Z,11.28
2022-09-06T05:46:03.701Z,11.45
2022-09-06T05:48:36.572Z,10.84
2022-09-06T05:51:15.377Z,10.85
2022-09-06T05:53:45.529Z,11.09
2022-09-06T05:56:15.549Z,11.68
2022-09-06T05:58:44.005Z,12.06
2022-09-06T06:01:18.518Z,12.20
2022-09-06T06:03:57.513Z,12.25
2022-09-06T06:06:28.532Z,12.71
2022-09-06T06:08:57.114Z,12.61
2022-09-06T06:11:26.187Z,12.83
2022-09-06T06:13:55.249Z,13.07
2022-09-06T06:16:25.832Z,12.81
2022-09-06T06:18:54.319Z,12.67
2022-09-06T06:21:25.631Z,12.93
2022-09-06T06:24:00.231Z,12.78
2022-09-06T06:26:33.345Z,12.71
2022-09-06T06:29:05.847Z,12.64
2022-09-06T06:31:34.995Z,12.75
2022-09-06T06:34:04.601Z,13.35
2022-09-06T06:36:35.446Z,13.79
2022-09-06T06:39:09.606Z,13.52
2022-09-06T06:41:38.094Z,13.86
2022-09-06T06:44:27.419Z,13.56
2022-09-06T06:46:59.666Z,13.74
2022-09-06T06:49:29.929Z,13.48
2022-09-06T06:51:58.464Z,13.52
2022-09-06T06:54:26.673Z,13.30
2022-09-06T06:56:54.817Z,13.19
2022-09-06T06:59:23.348Z,13.17
2022-09-06T07:01:51.847Z,13.17
2022-09-06T07:04:20.119Z,13.77
2022-09-06T07:12:33.495Z,15.00
2022-09-06T07:15:01.620Z,15.11
2022-09-06T07:17:29.999Z,14.98
2022-09-06T07:20:14.330Z,15.21
2022-09-06T07:22:43.595Z,15.55
2022-09-06T07:25:16.493Z,15.90
2022-09-06T07:27:49.612Z,16.76
2022-09-06T07:30:21.476Z,16.82
2022-09-06T07:32:49.878Z,16.87
2022-09-06T07:35:20.449Z,17.07
2022-09-06T07:37:56.280Z,16.28
2022-09-06T07:40:26.861Z,16.62
2022-09-06T07:43:01.698Z,16.70
2022-09-06T07:45:29.881Z,16.25
2022-09-06T07:47:59.806Z,16.55
2022-09-06T07:50:48.122Z,16.27
2022-09-06T07:53:24.646Z,16.67
2022-09-06T07:55:54.530Z,16.71
2022-09-06T07:58:23.066Z,16.42
2022-09-06T08:00:51.524Z,16.51
2022-09-06T08:03:20.896Z,17.18
2022-09-06T08:06:10.690Z,17.22
2022-09-06T08:11:31.190Z,17.30
2022-09-06T08:14:01.518Z,17.54
2022-09-06T08:16:31.262Z,17.46
2022-09-06T08:19:08.544Z,16.63
2022-09-06T08:21:36.898Z,17.31
2022-09-06T08:24:08.297Z,18.38
2022-09-06T08:26:42.668Z,18.03
2022-09-06T08:29:11.951Z,17.76
2022-09-06T08:31:43.913Z,17.13
2022-09-06T08:34:16.137Z,17.72
2022-09-06T08:36:45.701Z,17.24
2022-09-06T08:39:13.837Z,17.49
2022-09-06T08:41:48.103Z,17.94
2022-09-06T08:44:56.027Z,17.67
2022-09-06T08:47:27.131Z,18.02
2022-09-06T08:50:02.860Z,19.12
2022-09-06T08:53:16.677Z,18.87
2022-09-06T08:56:27.370Z,19.44
2022-09-06T08:59:14.941Z,19.28
2022-09-06T09:02:10.392Z,19.31
2022-09-06T09:04:56.451Z,19.32
2022-09-06T09:07:50.426Z,19.98
2022-09-06T09:10:46.457Z,18.64
2022-09-06T09:13:50.872Z,18.77
2022-09-06T09:16:21.020Z,19.45
2022-09-06T09:19:03.007Z,20.09
2022-09-06T09:21:40.964Z,19.53
2022-09-06T09:24:13.470Z,18.63
2022-09-06T09:27:14.032Z,19.35
2022-09-06T09:32:45.886Z,20.08
2022-09-06T09:35:23.599Z,20.43
2022-09-06T09:38:14.090Z,20.32
2022-09-06T09:40:50.925Z,20.18
2022-09-06T09:43:38.840Z,20.72
2022-09-06T09:46:30.804Z,20.37
2022-09-06T09:49:22.752Z,20.05
2022-09-06T09:52:14.501Z,19.09
2022-09-06T09:54:47.989Z,19.06
2022-09-06T09:57:19.608Z,19.27
2022-09-06T09:59:55.240Z,19.99
2022-09-06T10:02:36.504Z,20.29
2022-09-06T10:05:13.193Z,20.57
2022-09-06T10:07:58.706Z,20.62
2022-09-06T10:10:48.037Z,21.13
2022-09-06T10:13:24.149Z,20.91
2022-09-06T10:15:54.341Z,20.98
2022-09-06T10:18:34.044Z,21.02
2022-09-06T10:21:19.165Z,20.60
2022-09-06T10:24:31.546Z,21.65
2022-09-06T10:27:03.117Z,21.67
2022-09-06T10:30:02.025Z,21.46
2022-09-06T10:32:49.404Z,21.39
2022-09-06T10:35:32.163Z,21.98
2022-09-06T10:38:32.758Z,21.91
2022-09-06T10:41:33.451Z,22.11
2022-09-06T10:44:26.139Z,22.72
2022-09-06T10:47:13.490Z,22.71
2022-09-06T10:49:49.175Z,22.11
2022-09-06T10:52:30.971Z,21.60
2022-09-06T10:55:04.967Z,21.49
2022-09-06T11:00:47.101Z,20.53
2022-09-06T11:04:01.900Z,21.24
2022-09-06T11:06:37.236Z,21.69
2022-09-06T11:09:46.357Z,20.62
2022-09-06T11:12:50.548Z,21.09
2022-09-06T11:15:20.605Z,21.95
2022-09-06T11:18:04.778Z,22.86
2022-09-06T11:20:48.249Z,21.58
2022-09-06T11:23:22.231Z,21.42
2022-09-06T11:26:05.583Z,22.59
2022-09-06T11:28:46.646Z,22.38
2022-09-06T11:34:34.366Z,23.55
2022-09-06T11:37:09.489Z,23.64
2022-09-06T11:42:49.099Z,22.79
2022-09-06T11:45:40.767Z,22.65
2022-09-06T11:48:29.187Z,23.69
2022-09-06T11:51:00.295Z,23.65
2022-09-06T11:53:31.294Z,23.60
2022-09-06T11:56:02.397Z,23.74
2022-09-06T11:58:53.845Z,23.83
2022-09-06T12:01:22.096Z,24.34
2022-09-06T12:04:09.482Z,24.89
2022-09-06T12:07:12.663Z,25.42
2022-09-06T12:09:44.122Z,25.57
2022-09-06T12:12:43.353Z,26.09
2022-09-06T12:15:52.195Z,25.82
2022-09-06T12:18:48.354Z,25.14
2022-09-06T12:21:38.178Z,25.06
2022-09-06T12:24:29.211Z,24.47
2022-09-06T12:27:17.362Z,24.64
2022-09-06T12:30:07.531Z,25.15
2022-09-06T12:33:08.420Z,25.16
2022-09-06T12:38:26.093Z,24.42
2022-09-06T12:40:59.230Z,23.78
2022-09-06T12:43:27.575Z,23.63
2022-09-06T12:45:55.524Z,24.08
2022-09-06T12:48:33.714Z,22.94
2022-09-06T12:51:19.543Z,22.73
2022-09-06T12:54:06.326Z,23.38
2022-09-06T12:56:35.105Z,23.87
2022-09-06T12:59:19.691Z,24.39
2022-09-06T13:02:05.774Z,24.53
2022-09-06T13:04:46.436Z,23.76
2022-09-06T13:07:18.141Z,23.80
2022-09-06T13:09:49.607Z,23.44
2022-09-06T13:12:29.746Z,23.77
2022-09-06T13:15:05.265Z,23.82
2022-09-06T13:17:35.839Z,23.78
2022-09-06T13:20:28.402Z,22.85
2022-09-06T13:23:20.199Z,23.25
2022-09-06T13:25:54.005Z,23.23
2022-09-06T13:28:32.676Z,23.52
2022-09-06T13:31:14.616Z,23.67
2022-09-06T13:33:42.983Z,24.03
2022-09-06T13:36:14.025Z,24.51
2022-09-06T13:38:45.868Z,24.30
2022-09-06T13:41:26.169Z,24.43
2022-09-06T13:44:16.948Z,23.33
2022-09-06T13:46:45.131Z,21.50
2022-09-06T13:49:13.824Z,22.39
2022-09-06T13:51:43.780Z,22.32
2022-09-06T13:54:14.578Z,22.12
2022-09-06T13:56:45.020Z,22.74
2022-09-06T13:59:13.520Z,21.96
2022-09-06T14:01:46.364Z,22.10
2022-09-06T14:04:23.079Z,21.49
2022-09-06T14:06:51.919Z,21.85
2022-09-06T14:09:20.244Z,21.68
2022-09-06T14:11:48.627Z,21.11
2022-09-06T14:14:18.256Z,21.81
2022-09-06T14:16:50.173Z,22.03
2022-09-06T14:19:19.229Z,22.71
2022-09-06T14:21:47.239Z,22.64
2022-09-06T14:24:15.345Z,21.65
2022-09-06T14:26:43.750Z,22.48
2022-09-06T14:29:11.996Z,22.55
2022-09-06T14:31:40.437Z,22.44
2022-09-06T14:34:08.582Z,22.33
2022-09-06T14:36:36.871Z,22.60
2022-09-06T14:39:05.405Z,22.66
2022-09-06T14:41:33.560Z,22.60
2022-09-06T14:44:01.664Z,23.18
2022-09-06T14:46:30.247Z,23.36
2022-09-06T14:49:10.434Z,23.25
2022-09-06T14:51:39.997Z,22.26
2022-09-06T14:54:15.009Z,22.12
2022-09-06T14:56:44.241Z,22.24
2022-09-06T14:59:13.431Z,22.04
2022-09-06T15:01:42.235Z,22.39
2022-09-06T15:04:12.077Z,23.09
2022-09-06T15:06:45.121Z,22.80
2022-09-06T15:09:17.776Z,23.16
2022-09-06T15:11:54.307Z,22.94
2022-09-06T15:14:26.539Z,22.88
2022-09-06T15:16:58.342Z,22.83
2022-09-06T15:19:31.343Z,22.60
2022-09-06T15:21:59.700Z,21.89
2022-09-06T15:24:29.114Z,21.81
2022-09-06T15:26:57.744Z,21.76
2022-09-06T15:29:27.468Z,21.93
2022-09-06T15:31:56.177Z,21.28
2022-09-06T15:34:26.466Z,21.34
2022-09-06T15:36:55.022Z,20.94
2022-09-06T15:39:23.534Z,20.98
2022-09-06T15:41:51.994Z,20.39
2022-09-06T15:44:21.751Z,20.12
2022-09-06T15:46:55.895Z,19.96
2022-09-06T15:49:32.271Z,19.79
2022-09-06T15:52:06.457Z,19.93
2022-09-06T15:54:53.121Z,19.36
2022-09-06T15:57:21.236Z,19.25
2022-09-06T15:59:49.415Z,18.99
2022-09-06T16:02:20.502Z,18.57
2022-09-06T16:04:48.577Z,18.57
2022-09-06T16:07:16.606Z,18.35
2022-09-06T16:09:45.543Z,18.19
2022-09-06T16:12:14.141Z,18.04
2022-09-06T16:14:42.171Z,18.01
2022-09-06T16:17:12.471Z,17.97
2022-09-06T16:19:41.019Z,17.83
2022-09-06T16:22:09.103Z,17.65
2022-09-06T16:24:37.766Z,17.46
2022-09-06T16:27:05.837Z,17.35
2022-09-06T16:29:33.941Z,17.20
2022-09-06T16:32:02.119Z,17.09
2022-09-06T16:34:30.268Z,17.04
2022-09-06T16:36:58.352Z,16.82
2022-09-06T16:39:26.574Z,16.42
2022-09-06T16:41:55.025Z,16.43
2022-09-06T16:44:23.257Z,16.03
2022-09-06T16:46:53.127Z,16.10
2022-09-06T16:49:21.230Z,15.90
2022-09-06T16:51:50.614Z,15.41
2022-09-06T16:54:19.335Z,15.49
2022-09-06T16:56:48.081Z,15.40
2022-09-06T16:59:17.437Z,15.24
2022-09-06T17:01:46.450Z,14.97
2022-09-06T17:04:16.163Z,14.95
2022-09-06T17:06:44.823Z,14.70
2022-09-06T17:09:16.693Z,14.60
2022-09-06T17:11:45.299Z,14.39
2022-09-06T17:14:13.384Z,14.22
2022-09-06T17:17:01.050Z,14.14
2022-09-06T17:19:30.588Z,13.95
2022-09-06T17:21:59.221Z,13.84
2022-09-06T17:24:27.724Z,13.76
2022-09-06T17:26:56.142Z,13.43
2022-09-06T17:29:26.107Z,13.50
2022-09-06T17:31:56.258Z,13.36
2022-09-06T17:34:24.527Z,13.30
2022-09-06T17:36:53.601Z,13.17
2022-09-06T17:39:22.112Z,13.08
2022-09-06T17:41:54.531Z,12.99
2022-09-06T17:44:27.030Z,12.55
2022-09-06T17:47:12.569Z,12.75
2022-09-06T17:49:42.789Z,12.64
2022-09-06T17:52:11.549Z,12.59
2022-09-06T17:54:39.546Z,12.50
2022-09-06T17:57:07.754Z,12.41
2022-09-06T17:59:36.367Z,12.23
2022-09-06T18:02:05.522Z,11.90
2022-09-06T18:04:33.929Z,11.94
2022-09-06T18:07:02.223Z,11.91
2022-09-06T18:09:30.848Z,11.84
2022-09-06T18:11:59.413Z,11.61
2022-09-06T18:14:28.956Z,11.34
2022-09-06T18:16:57.457Z,11.48
2022-09-06T18:19:27.675Z,11.40
2022-09-06T18:21:57.574Z,11.26
2022-09-06T18:24:25.688Z,11.19
2022-09-06T18:26:54.113Z,11.10
2022-09-06T18:29:22.739Z,10.94
2022-09-06T18:31:53.828Z,11.00
2022-09-06T18:34:22.274Z,11.03
2022-09-06T18:36:50.953Z,10.79
2022-09-06T18:39:20.644Z,10.95
2022-09-06T18:44:39.108Z,10.85
2022-09-06T18:47:12.592Z,10.74
2022-09-06T18:49:44.154Z,10.58
2022-09-06T18:52:12.668Z,10.49
2022-09-06T18:54:41.156Z,10.11
2022-09-06T18:57:09.690Z,9.71
2022-09-06T18:59:41.634Z,10.08
2022-09-06T19:02:09.879Z,10.05
2022-09-06T19:04:38.251Z,9.96
2022-09-06T19:07:06.544Z,9.68
2022-09-06T19:09:34.777Z,9.83
2022-09-06T19:12:04.980Z,9.80
2022-09-06T19:14:33.902Z,9.58
2022-09-06T19:17:02.151Z,9.51
2022-09-06T19:19:30.809Z,9.47
2022-09-06T19:21:58.863Z,9.39
2022-09-06T19:24:26.994Z,9.29
2022-09-06T19:26:55.873Z,8.97
2022-09-06T19:29:24.757Z,8.98
2022-09-06T19:31:54.738Z,9.18
2022-09-06T19:34:22.969Z,9.07
2022-09-06T19:36:55.600Z,8.92
2022-09-06T19:39:32.277Z,9.09
2022-09-06T19:42:03.155Z,8.72
2022-09-06T19:44:31.447Z,8.89
2022-09-06T19:47:00.353Z,8.67
2022-09-06T19:49:29.749Z,8.77
2022-09-06T19:51:58.447Z,8.69
2022-09-06T19:54:27.388Z,8.50
2022-09-06T19:56:56.125Z,8.41
2022-09-06T19:59:24.366Z,8.36
2022-09-06T20:01:53.609Z,8.35
2022-09-06T20:04:22.096Z,8.30
2022-09-06T20:06:50.303Z,8.41
2022-09-06T20:09:18.313Z,8.61
2022-09-06T20:11:46.675Z,8.42
2022-09-06T20:14:14.898Z,8.23
2022-09-06T20:16:43.202Z,7.75
2022-09-06T20:19:12.930Z,8.05
2022-09-06T20:21:41.467Z,7.97
2022-09-06T20:24:09.674Z,7.78
2022-09-06T20:26:38.062Z,7.79
2022-09-06T20:29:06.974Z,7.82
2022-09-06T20:31:37.119Z,7.77
2022-09-06T20:34:07.954Z,7.71
2022-09-06T20:36:36.845Z,7.63
2022-09-06T20:39:05.192Z,7.49
2022-09-06T20:41:34.095Z,7.55
2022-09-06T20:44:02.421Z,7.55
2022-09-06T20:46:34.065Z,7.60
2022-09-06T20:49:04.962Z,7.56
2022-09-06T20:51:35.861Z,7.22
2022-09-06T20:54:05.825Z,7.16
2022-09-06T20:56:38.779Z,7.25
2022-09-06T20:59:13.997Z,7.13
2022-09-06T21:01:45.334Z,6.93
2022-09-06T21:04:16.209Z,6.75
2022-09-06T21:06:46.218Z,6.75
2022-09-06T21:09:15.098Z,6.53
2022-09-06T21:11:45.418Z,6.39
2022-09-06T21:14:14.064Z,6.72
2022-09-06T21:16:42.564Z,6.50
2022-09-06T21:19:12.251Z,6.67
2022-09-06T21:21:40.968Z,6.48
2022-09-06T21:24:11.090Z,6.59
2022-09-06T21:26:39.195Z,6.59
2022-09-06T21:29:07.183Z,6.64
2022-09-06T21:31:37.331Z,6.67
2022-09-06T21:34:15.486Z,6.69
2022-09-06T21:36:44.972Z,6.66
2022-09-06T21:39:13.193Z,6.39
2022-09-06T21:41:44.137Z,6.53
2022-09-06T21:44:13.221Z,6.41
2022-09-06T21:46:42.103Z,6.14
2022-09-06T21:49:13.296Z,6.21
2022-09-06T21:51:42.296Z,6.24
2022-09-06T21:54:11.232Z,6.27
2022-09-06T21:56:40.012Z,6.08
2022-09-06T21:59:09.326Z,5.88
2022-09-06T22:01:39.580Z,5.90
2022-09-06T22:04:08.698Z,5.66
2022-09-06T22:06:38.058Z,5.72
2022-09-06T22:09:13.844Z,5.49
2022-09-06T22:11:44.410Z,5.42
2022-09-06T22:14:14.786Z,5.58
2022-09-06T22:16:43.380Z,5.62
2022-09-06T22:19:12.067Z,5.55
2022-09-06T22:21:40.900Z,5.49
2022-09-06T22:24:11.668Z,5.36
2022-09-06T22:26:41.245Z,5.42
2022-09-06T22:29:12.043Z,4.42
2022-09-06T22:31:41.081Z,5.01
2022-09-06T22:34:10.676Z,5.34
2022-09-06T22:36:39.178Z,5.29
2022-09-06T22:39:07.167Z,5.30
2022-09-06T22:41:35.522Z,5.28
2022-09-06T22:44:05.154Z,4.98
2022-09-06T22:46:34.040Z,5.19
2022-09-06T22:49:04.126Z,4.75
2022-09-06T22:51:32.609Z,4.99
2022-09-06T22:54:00.652Z,5.01
2022-09-06T22:56:28.916Z,5.08
2022-09-06T22:58:58.318Z,5.19
2022-09-06T23:01:26.499Z,5.13
2022-09-06T23:03:54.575Z,5.18
2022-09-06T23:06:22.668Z,4.88
2022-09-06T23:08:51.019Z,5.10
2022-09-06T23:11:19.827Z,4.95
2022-09-06T23:13:48.189Z,4.51
2022-09-06T23:16:20.085Z,4.73
2022-09-06T23:18:49.046Z,4.42
2022-09-06T23:21:20.623Z,4.47
2022-09-06T23:23:50.971Z,4.54
2022-09-06T23:26:24.307Z,4.46
2022-09-06T23:28:57.001Z,4.38
2022-09-06T23:31:29.127Z,4.32
2022-09-06T23:33:59.940Z,3.96
2022-09-06T23:36:28.903Z,4.22
2022-09-06T23:38:57.551Z,4.17
2022-09-06T23:41:25.956Z,3.87
2022-09-06T23:43:54.418Z,4.07
2022-09-06T23:46:22.511Z,3.74
2022-09-06T23:48:50.850Z,4.06
2022-09-06T23:51:19.314Z,4.05
2022-09-06T23:53:47.611Z,3.81
2022-09-06T23:56:16.149Z,4.03
2022-09-06T23:58:44.026Z,3.93
